Time;durP1;ratioP1;P1;durP2;ratioP2;P2;SDS_P1;SDS_P2;PMS_P1;PMS_P2;Temp;Humidity;BMP_temperature;BMP_pressure;BME280_temperature;BME280_humidity;BME280_pressure;Samples;Min_cycle;Max_cycle;Signal;HPM_P1;HPM_P2
2023/08/29 00:00:10;;;;;;;4.10;2.55;;;;;;;;;;5040367;28;20631;-76
2023/08/29 00:02:44;;;;;;;4.70;2.38;;;;;;;;;;5006806;28;20446;-76
2023/08/29 00:05:09;;;;;;;4.25;2.95;;;;;;;;;;5043815;28;20033;-77
2023/08/29 00:07:35;;;;;;;4.10;2.75;;;;;;;;;;5043829;28;20029;-77
2023/08/29 00:10:01;;;;;;;3.88;2.63;;;;;;;;;;5031142;28;20037;-77
2023/08/29 00:12:26;;;;;;;4.00;2.42;;;;;;;;;;5026102;28;20048;-76
2023/08/29 00:14:51;;;;;;;4.43;2.75;;;;;;;;;;5041414;28;20036;-76
2023/08/29 00:17:17;;;;;;;4.13;2.70;;;;;;;;;;5043808;28;20036;-76
2023/08/29 00:19:42;;;;;;;3.47;2.30;;;;;;;;;;5039657;28;20052;-76
2023/08/29 00:22:07;;;;;;;4.35;1.98;;;;;;;;;;5044296;28;20120;-77
2023/08/29 00:24:32;;;;;;;3.60;2.28;;;;;;;;;;5044745;28;20195;-77
2023/08/29 00:26:58;;;;;;;5.07;3.28;;;;;;;;;;5044486;28;20053;-77
2023/08/29 00:29:23;;;;;;;4.38;2.60;;;;;;;;;;5027395;28;20067;-77
2023/08/29 00:31:48;;;;;;;4.18;2.85;;;;;;;;;;5043011;28;20033;-77
2023/08/29 00:34:14;;;;;;;4.53;3.55;;;;;;;;;;5034860;28;20108;-77
2023/08/29 00:36:39;;;;;;;3.17;2.28;;;;;;;;;;5037365;28;20033;-77
2023/08/29 00:39:04;;;;;;;3.63;2.63;;;;;;;;;;5049196;28;20037;-77
2023/08/29 00:41:30;;;;;;;3.65;2.03;;;;;;;;;;5035578;28;20033;-77
2023/08/29 00:43:56;;;;;;;5.88;2.50;;;;;;;;;;5027980;28;20029;-77
2023/08/29 00:46:22;;;;;;;4.45;2.67;;;;;;;;;;5027723;28;20025;-77
2023/08/29 00:48:48;;;;;;;3.38;2.53;;;;;;;;;;5050003;28;20052;-77
2023/08/29 00:51:13;;;;;;;5.10;3.20;;;;;;;;;;5048180;28;20057;-77
2023/08/29 00:53:38;;;;;;;4.78;3.85;;;;;;;;;;5035346;28;20080;-77
2023/08/29 00:56:04;;;;;;;4.30;3.50;;;;;;;;;;5036450;28;20025;-77
2023/08/29 00:58:30;;;;;;;4.82;2.75;;;;;;;;;;5024292;28;20514;-77
2023/08/29 01:00:55;;;;;;;6.03;4.40;;;;;;;;;;5021443;28;20030;-77
2023/08/29 01:03:21;;;;;;;4.03;2.65;;;;;;;;;;5017782;28;20025;-77
2023/08/29 01:05:46;;;;;;;4.15;2.72;;;;;;;;;;5024022;28;20062;-76
2023/08/29 01:08:12;;;;;;;5.38;3.83;;;;;;;;;;5034472;28;20033;-76
2023/08/29 01:10:52;;;;;;;5.82;3.63;;;;;;;;;;5041504;28;20037;-77
2023/08/29 01:13:30;;;;;;;5.68;4.47;;;;;;;;;;5042315;28;20034;-77
2023/08/29 01:15:57;;;;;;;6.32;5.05;;;;;;;;;;5028134;28;20172;-77
2023/08/29 01:18:24;;;;;;;6.97;4.82;;;;;;;;;;5026197;28;20435;-77
2023/08/29 01:20:55;;;;;;;5.05;4.00;;;;;;;;;;5019945;28;20036;-77
2023/08/29 01:23:23;;;;;;;6.40;4.43;;;;;;;;;;5024899;28;20030;-77
2023/08/29 01:25:51;;;;;;;5.53;3.97;;;;;;;;;;5029313;28;20025;-77
2023/08/29 01:28:17;;;;;;;5.72;4.53;;;;;;;;;;5020562;28;20483;-77
2023/08/29 01:30:43;;;;;;;7.35;3.75;;;;;;;;;;5026803;28;20029;-77
2023/08/29 01:33:09;;;;;;;6.60;4.03;;;;;;;;;;5021052;28;20037;-77
2023/08/29 01:35:41;;;;;;;6.18;4.22;;;;;;;;;;5048176;28;20036;-79
2023/08/29 01:38:06;;;;;;;5.30;3.97;;;;;;;;;;5032145;28;20041;-77
2023/08/29 01:40:32;;;;;;;5.43;4.30;;;;;;;;;;5046652;28;20480;-77
2023/08/29 01:42:57;;;;;;;7.30;5.10;;;;;;;;;;5038773;28;20030;-77
2023/08/29 01:45:22;;;;;;;6.53;5.07;;;;;;;;;;5049436;28;20032;-77
2023/08/29 01:47:47;;;;;;;4.22;3.35;;;;;;;;;;5035809;28;20029;-77
2023/08/29 01:50:13;;;;;;;6.65;4.97;;;;;;;;;;5049145;28;20029;-77
2023/08/29 01:52:40;;;;;;;5.68;4.22;;;;;;;;;;5044998;28;20053;-77
2023/08/29 01:55:05;;;;;;;6.20;5.00;;;;;;;;;;5029247;28;20083;-77
2023/08/29 01:57:33;;;;;;;5.35;3.78;;;;;;;;;;5047954;28;20439;-77
2023/08/29 01:59:59;;;;;;;5.70;4.07;;;;;;;;;;5027519;28;20053;-77
2023/08/29 02:02:24;;;;;;;5.82;3.97;;;;;;;;;;5030822;28;20025;-77
2023/08/29 02:04:50;;;;;;;5.93;5.03;;;;;;;;;;5047718;28;20403;-77
2023/08/29 02:07:15;;;;;;;8.75;5.22;;;;;;;;;;5037708;28;20035;-77
2023/08/29 02:09:40;;;;;;;5.55;4.53;;;;;;;;;;5034268;28;20028;-77
2023/08/29 02:12:06;;;;;;;5.63;4.72;;;;;;;;;;5037621;28;20021;-77
2023/08/29 02:14:31;;;;;;;6.15;4.68;;;;;;;;;;5035733;28;20087;-77
2023/08/29 02:16:57;;;;;;;5.50;4.15;;;;;;;;;;5030325;28;20025;-77
2023/08/29 02:19:22;;;;;;;5.78;4.47;;;;;;;;;;5035255;28;20507;-77
2023/08/29 02:21:47;;;;;;;5.68;4.93;;;;;;;;;;5037264;28;20415;-77
2023/08/29 02:24:12;;;;;;;5.75;5.15;;;;;;;;;;5034860;28;20107;-77
2023/08/29 02:26:38;;;;;;;6.45;4.53;;;;;;;;;;5049359;28;20431;-77
2023/08/29 02:29:03;;;;;;;7.63;4.43;;;;;;;;;;5045354;28;20029;-77
2023/08/29 02:31:28;;;;;;;7.00;5.38;;;;;;;;;;5042353;28;20104;-77
2023/08/29 02:33:53;;;;;;;6.05;5.13;;;;;;;;;;5054026;28;20479;-77
2023/08/29 02:36:18;;;;;;;7.88;5.22;;;;;;;;;;5037045;28;20033;-77
2023/08/29 02:38:44;;;;;;;6.25;4.78;;;;;;;;;;5033977;28;20038;-77
2023/08/29 02:41:14;;;;;;;7.93;5.57;;;;;;;;;;5051690;28;20040;-77
2023/08/29 02:43:39;;;;;;;6.63;5.70;;;;;;;;;;5037057;28;20029;-77
2023/08/29 02:46:04;;;;;;;7.05;6.18;;;;;;;;;;5049412;28;20056;-77
2023/08/29 02:48:31;;;;;;;6.38;4.78;;;;;;;;;;5050032;28;20014;-77
2023/08/29 02:50:56;;;;;;;6.78;5.40;;;;;;;;;;5037860;28;20203;-77
2023/08/29 02:53:22;;;;;;;8.20;5.95;;;;;;;;;;5046459;28;20478;-77
2023/08/29 02:55:51;;;;;;;6.60;5.60;;;;;;;;;;5045788;28;20778;-77
2023/08/29 02:58:16;;;;;;;7.85;6.35;;;;;;;;;;5011381;28;20043;-77
2023/08/29 03:00:42;;;;;;;8.70;7.35;;;;;;;;;;5044432;28;20124;-77
2023/08/29 03:03:07;;;;;;;10.55;7.57;;;;;;;;;;5045001;28;20437;-77
2023/08/29 03:05:32;;;;;;;10.65;8.05;;;;;;;;;;5048659;28;20422;-77
2023/08/29 03:08:04;;;;;;;10.80;8.57;;;;;;;;;;5036114;28;20065;-77
2023/08/29 03:10:34;;;;;;;9.68;8.20;;;;;;;;;;5021158;28;20025;-77
2023/08/29 03:13:00;;;;;;;9.95;8.70;;;;;;;;;;5014974;28;20029;-78
2023/08/29 03:15:25;;;;;;;12.02;8.60;;;;;;;;;;5041115;28;20033;-78
2023/08/29 03:17:50;;;;;;;10.57;8.25;;;;;;;;;;5039580;28;20032;-78
2023/08/29 03:20:16;;;;;;;9.82;8.18;;;;;;;;;;5033730;28;20028;-78
2023/08/29 03:22:42;;;;;;;11.00;9.13;;;;;;;;;;5030683;28;20041;-78
2023/08/29 03:25:07;;;;;;;10.00;8.95;;;;;;;;;;5050951;28;20033;-78
2023/08/29 03:27:32;;;;;;;10.50;9.07;;;;;;;;;;5038813;28;20021;-78
2023/08/29 03:29:58;;;;;;;10.13;7.80;;;;;;;;;;5038144;28;20026;-77
2023/08/29 03:32:23;;;;;;;9.50;8.05;;;;;;;;;;5043247;28;20446;-78
2023/08/29 03:34:52;;;;;;;10.48;8.13;;;;;;;;;;5032341;28;20112;-78
2023/08/29 03:37:18;;;;;;;9.57;8.32;;;;;;;;;;5049009;28;20080;-78
2023/08/29 03:39:43;;;;;;;9.85;8.15;;;;;;;;;;5048242;28;20037;-77
2023/08/29 03:42:08;;;;;;;10.63;8.80;;;;;;;;;;5038995;28;20036;-78
2023/08/29 03:44:36;;;;;;;10.02;7.55;;;;;;;;;;5047446;28;20025;-77
2023/08/29 03:47:01;;;;;;;8.75;7.25;;;;;;;;;;5039826;28;20028;-77
2023/08/29 03:49:26;;;;;;;11.13;9.30;;;;;;;;;;5032696;28;20044;-77
2023/08/29 03:51:51;;;;;;;11.70;9.05;;;;;;;;;;5046846;28;20100;-77
2023/08/29 03:54:17;;;;;;;9.10;7.82;;;;;;;;;;5035266;28;20552;-77
2023/08/29 03:56:43;;;;;;;9.95;8.73;;;;;;;;;;5032986;28;20048;-77
2023/08/29 03:59:09;;;;;;;11.15;10.02;;;;;;;;;;5034305;28;20452;-77
2023/08/29 04:01:34;;;;;;;10.45;9.00;;;;;;;;;;5026025;28;20119;-77
2023/08/29 04:04:02;;;;;;;10.70;9.52;;;;;;;;;;5034788;28;20086;-77
2023/08/29 04:06:28;;;;;;;10.77;8.63;;;;;;;;;;5018357;28;20032;-77
2023/08/29 04:08:54;;;;;;;9.18;7.80;;;;;;;;;;5026912;28;20018;-77
2023/08/29 04:11:19;;;;;;;8.45;7.38;;;;;;;;;;5027221;28;20502;-77
2023/08/29 04:13:51;;;;;;;9.38;7.82;;;;;;;;;;5035300;28;20029;-77
2023/08/29 04:16:17;;;;;;;8.52;6.38;;;;;;;;;;5048054;28;20025;-76
2023/08/29 04:18:42;;;;;;;8.18;7.13;;;;;;;;;;5018081;28;20498;-77
2023/08/29 04:21:07;;;;;;;10.85;8.55;;;;;;;;;;5050581;28;20033;-77
2023/08/29 04:23:33;;;;;;;10.07;8.55;;;;;;;;;;5029741;28;20029;-77
2023/08/29 04:25:59;;;;;;;11.10;9.13;;;;;;;;;;5035074;28;20028;-77
2023/08/29 04:28:24;;;;;;;11.00;8.38;;;;;;;;;;5049685;28;20028;-77
2023/08/29 04:30:50;;;;;;;14.35;10.52;;;;;;;;;;5027616;28;20464;-76
2023/08/29 04:33:15;;;;;;;13.55;9.70;;;;;;;;;;5037941;28;20100;-77
2023/08/29 04:35:40;;;;;;;11.05;9.13;;;;;;;;;;5042939;28;20029;-77
2023/08/29 04:38:05;;;;;;;15.45;11.20;;;;;;;;;;5051672;28;20078;-77
2023/08/29 04:40:30;;;;;;;14.15;10.80;;;;;;;;;;5034287;28;20033;-76
2023/08/29 04:42:56;;;;;;;16.77;12.45;;;;;;;;;;5045673;28;20030;-77
2023/08/29 04:45:23;;;;;;;18.52;14.07;;;;;;;;;;5046845;28;20029;-77
2023/08/29 04:47:48;;;;;;;16.50;11.98;;;;;;;;;;5031763;28;20045;-77
2023/08/29 04:50:14;;;;;;;13.30;11.43;;;;;;;;;;5027577;28;20025;-77
2023/08/29 04:52:40;;;;;;;14.07;10.50;;;;;;;;;;5037324;28;20033;-77
2023/08/29 04:55:05;;;;;;;18.35;13.63;;;;;;;;;;5038872;28;20032;-78
2023/08/29 04:57:32;;;;;;;14.02;10.30;;;;;;;;;;5054380;28;20033;-78
2023/08/29 04:59:57;;;;;;;15.93;11.77;;;;;;;;;;5035249;28;20036;-78
2023/08/29 05:02:22;;;;;;;12.73;9.82;;;;;;;;;;5035292;28;20033;-78
2023/08/29 05:04:48;;;;;;;10.10;8.73;;;;;;;;;;5040389;28;20032;-78
2023/08/29 05:07:13;;;;;;;10.93;8.65;;;;;;;;;;5049092;28;20472;-78
2023/08/29 05:09:39;;;;;;;9.18;6.20;;;;;;;;;;5050764;28;20056;-78
2023/08/29 05:12:04;;;;;;;6.97;5.10;;;;;;;;;;5039927;28;20021;-78
2023/08/29 05:14:29;;;;;;;9.45;6.72;;;;;;;;;;5050301;28;20025;-78
2023/08/29 05:16:55;;;;;;;10.00;7.82;;;;;;;;;;5040254;28;20377;-78
2023/08/29 05:19:20;;;;;;;10.27;6.60;;;;;;;;;;5036522;28;20064;-78
2023/08/29 05:21:46;;;;;;;9.48;6.75;;;;;;;;;;5038434;28;20029;-77
2023/08/29 05:24:11;;;;;;;8.60;6.80;;;;;;;;;;5038663;28;20036;-78
2023/08/29 05:26:36;;;;;;;9.02;7.45;;;;;;;;;;5049119;28;20099;-78
2023/08/29 05:29:02;;;;;;;9.75;7.85;;;;;;;;;;5035672;28;20036;-78
2023/08/29 05:31:27;;;;;;;6.82;5.80;;;;;;;;;;5046525;28;20025;-77
2023/08/29 05:33:52;;;;;;;7.75;6.05;;;;;;;;;;5052728;28;20029;-78
2023/08/29 05:36:18;;;;;;;7.35;6.40;;;;;;;;;;5045833;28;20029;-78
2023/08/29 05:38:43;;;;;;;8.50;5.47;;;;;;;;;;5049979;28;20115;-77
2023/08/29 05:41:08;;;;;;;7.53;5.95;;;;;;;;;;5040701;28;20033;-78
2023/08/29 05:43:33;;;;;;;7.15;6.07;;;;;;;;;;5050355;28;20461;-77
2023/08/29 05:45:59;;;;;;;9.15;6.40;;;;;;;;;;5050500;28;20075;-78
2023/08/29 05:48:24;;;;;;;8.25;5.93;;;;;;;;;;5046828;28;20030;-78
2023/08/29 05:50:50;;;;;;;9.77;7.55;;;;;;;;;;5048517;28;20017;-78
2023/08/29 05:53:15;;;;;;;10.48;8.15;;;;;;;;;;5057037;28;20503;-78
2023/08/29 05:55:40;;;;;;;7.60;6.22;;;;;;;;;;5018591;28;20030;-78
2023/08/29 05:58:06;;;;;;;8.10;6.88;;;;;;;;;;5040344;28;20033;-78
2023/08/29 06:00:32;;;;;;;9.05;7.20;;;;;;;;;;5049828;28;20048;-78
2023/08/29 06:02:57;;;;;;;7.95;6.30;;;;;;;;;;5050325;28;20084;-78
2023/08/29 06:05:23;;;;;;;6.75;4.88;;;;;;;;;;5050764;28;20476;-78
2023/08/29 06:07:48;;;;;;;6.78;5.13;;;;;;;;;;5057478;28;20065;-78
2023/08/29 06:10:13;;;;;;;7.95;7.05;;;;;;;;;;5053926;28;20082;-78
2023/08/29 06:12:39;;;;;;;5.75;4.47;;;;;;;;;;5038393;28;20037;-78
2023/08/29 06:15:04;;;;;;;8.07;5.88;;;;;;;;;;5022612;28;20041;-78
2023/08/29 06:17:30;;;;;;;7.50;5.90;;;;;;;;;;5050425;28;20476;-78
2023/08/29 06:19:55;;;;;;;6.43;4.60;;;;;;;;;;5029469;28;20059;-78
2023/08/29 06:22:21;;;;;;;6.22;4.45;;;;;;;;;;5049170;28;20550;-78
2023/08/29 06:24:46;;;;;;;8.15;6.70;;;;;;;;;;5049743;28;20096;-78
2023/08/29 06:27:11;;;;;;;6.65;5.60;;;;;;;;;;5038341;28;20024;-78
2023/08/29 06:29:36;;;;;;;8.82;7.93;;;;;;;;;;5037092;28;20112;-77
2023/08/29 06:32:01;;;;;;;11.05;8.27;;;;;;;;;;5033932;28;20037;-78
2023/08/29 06:34:27;;;;;;;9.85;8.32;;;;;;;;;;5049471;28;20056;-78
2023/08/29 06:36:52;;;;;;;12.38;9.73;;;;;;;;;;5049298;28;20425;-78
2023/08/29 06:39:18;;;;;;;8.70;7.80;;;;;;;;;;5049075;28;20494;-78
2023/08/29 06:41:43;;;;;;;7.68;6.63;;;;;;;;;;5033928;28;20036;-78
2023/08/29 06:44:09;;;;;;;6.78;6.00;;;;;;;;;;5051629;28;20028;-78
2023/08/29 06:46:34;;;;;;;9.65;6.93;;;;;;;;;;5039570;28;20032;-78
2023/08/29 06:49:00;;;;;;;6.22;4.80;;;;;;;;;;5053627;28;20126;-78
2023/08/29 06:51:25;;;;;;;6.15;4.72;;;;;;;;;;5052012;28;20060;-78
2023/08/29 06:53:50;;;;;;;6.22;4.82;;;;;;;;;;5052778;28;20479;-78
2023/08/29 06:56:15;;;;;;;6.32;5.03;;;;;;;;;;5038385;28;20028;-78
2023/08/29 06:58:41;;;;;;;5.15;4.20;;;;;;;;;;5052289;28;20520;-77
2023/08/29 07:01:06;;;;;;;5.03;4.18;;;;;;;;;;5036611;28;20411;-78
2023/08/29 07:03:31;;;;;;;4.80;3.90;;;;;;;;;;5050626;28;20040;-78
2023/08/29 07:05:56;;;;;;;4.40;3.20;;;;;;;;;;5047890;28;20082;-78
2023/08/29 07:08:21;;;;;;;4.03;3.63;;;;;;;;;;5050050;28;20078;-78
2023/08/29 07:10:47;;;;;;;4.35;2.80;;;;;;;;;;5048203;28;20025;-77
2023/08/29 07:13:12;;;;;;;4.55;3.08;;;;;;;;;;5051405;28;20095;-78
2023/08/29 07:15:38;;;;;;;3.22;2.13;;;;;;;;;;5052587;28;20033;-78
2023/08/29 07:18:05;;;;;;;3.20;2.13;;;;;;;;;;5050194;28;20029;-78
2023/08/29 07:20:30;;;;;;;2.30;1.60;;;;;;;;;;5038227;28;20033;-78
2023/08/29 07:22:56;;;;;;;3.95;1.55;;;;;;;;;;5033903;28;20100;-78
2023/08/29 07:25:34;;;;;;;2.85;1.60;;;;;;;;;;5047590;28;20025;-78
2023/08/29 07:27:59;;;;;;;3.15;1.77;;;;;;;;;;5044522;28;20559;-78
2023/08/29 07:30:25;;;;;;;2.22;1.35;;;;;;;;;;5055345;28;20120;-78
2023/08/29 07:32:50;;;;;;;7.25;1.35;;;;;;;;;;5056260;28;20080;-78
2023/08/29 07:35:16;;;;;;;2.00;1.17;;;;;;;;;;5051061;28;20035;-78
2023/08/29 07:37:41;;;;;;;1.88;1.00;;;;;;;;;;5033092;28;20151;-78
2023/08/29 07:40:08;;;;;;;2.58;0.82;;;;;;;;;;5049632;28;20033;-78
2023/08/29 07:42:34;;;;;;;2.25;0.82;;;;;;;;;;5037438;28;20104;-78
2023/08/29 07:44:59;;;;;;;1.90;0.70;;;;;;;;;;5040187;28;20064;-78
2023/08/29 07:47:25;;;;;;;1.00;0.60;;;;;;;;;;5049736;28;20029;-78
2023/08/29 07:49:51;;;;;;;2.17;0.90;;;;;;;;;;5051992;28;20048;-78
2023/08/29 07:52:16;;;;;;;0.85;0.57;;;;;;;;;;5049226;28;20112;-78
2023/08/29 07:54:42;;;;;;;1.88;0.90;;;;;;;;;;5032118;28;20029;-78
2023/08/29 07:57:07;;;;;;;1.45;0.77;;;;;;;;;;5048259;28;20032;-78
2023/08/29 07:59:32;;;;;;;1.42;0.70;;;;;;;;;;5039260;28;20404;-78
2023/08/29 08:01:58;;;;;;;1.30;0.60;;;;;;;;;;5047411;28;20409;-77
2023/08/29 08:04:23;;;;;;;1.33;0.73;;;;;;;;;;5033114;28;20037;-78
2023/08/29 08:06:48;;;;;;;1.00;0.50;;;;;;;;;;5040388;28;20028;-78
2023/08/29 08:09:14;;;;;;;2.50;0.60;;;;;;;;;;5046633;28;20044;-78
2023/08/29 08:11:39;;;;;;;1.63;0.70;;;;;;;;;;5020249;28;20036;-78
2023/08/29 08:14:04;;;;;;;2.28;1.08;;;;;;;;;;5048596;28;20041;-78
2023/08/29 08:16:29;;;;;;;2.30;1.17;;;;;;;;;;5040850;28;20083;-78
2023/08/29 08:18:54;;;;;;;2.75;1.40;;;;;;;;;;5036735;28;20049;-78
2023/08/29 08:21:20;;;;;;;3.97;1.50;;;;;;;;;;5048633;28;20021;-78
2023/08/29 08:23:46;;;;;;;2.47;1.23;;;;;;;;;;5053157;28;20035;-78
2023/08/29 08:26:12;;;;;;;1.65;0.77;;;;;;;;;;5042706;28;20069;-78
2023/08/29 08:28:37;;;;;;;1.02;0.60;;;;;;;;;;5036237;28;20029;-78
2023/08/29 08:31:05;;;;;;;1.60;0.60;;;;;;;;;;5053794;28;20029;-78
2023/08/29 08:33:30;;;;;;;1.33;0.70;;;;;;;;;;5048705;28;20056;-78
2023/08/29 08:35:55;;;;;;;1.45;0.70;;;;;;;;;;5036311;28;20029;-78
2023/08/29 08:38:21;;;;;;;1.20;0.80;;;;;;;;;;5044167;28;20036;-78
2023/08/29 08:40:46;;;;;;;1.00;0.60;;;;;;;;;;5049467;28;20412;-78
2023/08/29 08:43:12;;;;;;;1.50;0.70;;;;;;;;;;5053074;28;20036;-77
2023/08/29 08:45:38;;;;;;;1.55;0.70;;;;;;;;;;5035740;28;20055;-78
2023/08/29 08:48:03;;;;;;;1.48;0.77;;;;;;;;;;5035384;28;20161;-77
2023/08/29 08:50:28;;;;;;;1.42;0.70;;;;;;;;;;5031344;28;20044;-77
2023/08/29 08:52:55;;;;;;;1.17;0.60;;;;;;;;;;5052547;28;20037;-77
2023/08/29 08:55:20;;;;;;;1.33;0.60;;;;;;;;;;5049544;28;20021;-77
2023/08/29 08:57:46;;;;;;;2.05;1.13;;;;;;;;;;5051867;28;20506;-77
2023/08/29 09:00:11;;;;;;;1.00;0.60;;;;;;;;;;5050242;28;20035;-77
2023/08/29 09:02:38;;;;;;;1.40;0.65;;;;;;;;;;5048073;28;20033;-78
2023/08/29 09:05:03;;;;;;;2.35;0.77;;;;;;;;;;5049366;28;20052;-78
2023/08/29 09:07:28;;;;;;;1.35;0.70;;;;;;;;;;5041198;28;20033;-78
2023/08/29 09:10:10;;;;;;;3.07;1.20;;;;;;;;;;5053598;28;20104;-77
2023/08/29 09:12:35;;;;;;;2.53;0.90;;;;;;;;;;5038653;28;20310;-77
2023/08/29 09:15:03;;;;;;;1.75;0.70;;;;;;;;;;5053555;28;20033;-77
2023/08/29 09:17:29;;;;;;;2.08;0.77;;;;;;;;;;5046767;28;20124;-77
2023/08/29 09:19:57;;;;;;;1.13;0.60;;;;;;;;;;5053857;28;20094;-77
2023/08/29 09:22:22;;;;;;;2.30;0.60;;;;;;;;;;5034199;28;20033;-77
2023/08/29 09:24:48;;;;;;;1.50;0.60;;;;;;;;;;5038250;28;20047;-77
2023/08/29 09:27:14;;;;;;;1.85;1.15;;;;;;;;;;5048289;28;20070;-77
2023/08/29 09:29:39;;;;;;;3.28;0.98;;;;;;;;;;5027358;28;20044;-77
2023/08/29 09:32:12;;;;;;;0.82;0.52;;;;;;;;;;5048951;28;20455;-77
2023/08/29 09:34:37;;;;;;;1.70;0.70;;;;;;;;;;5028557;28;20033;-78
2023/08/29 09:37:03;;;;;;;1.58;0.98;;;;;;;;;;5046899;28;20041;-77
2023/08/29 09:39:28;;;;;;;2.22;0.88;;;;;;;;;;5027658;28;20122;-77
2023/08/29 09:42:00;;;;;;;1.52;0.80;;;;;;;;;;5051427;28;20119;-77
2023/08/29 09:44:26;;;;;;;1.45;0.73;;;;;;;;;;5050795;28;20119;-77
2023/08/29 09:46:51;;;;;;;2.78;0.80;;;;;;;;;;5008915;28;20057;-77
2023/08/29 09:49:16;;;;;;;2.55;1.00;;;;;;;;;;5036924;28;20036;-77
2023/08/29 09:51:42;;;;;;;1.67;0.75;;;;;;;;;;5048192;28;20028;-77
2023/08/29 09:54:08;;;;;;;2.10;0.88;;;;;;;;;;5044722;28;20037;-77
2023/08/29 09:56:34;;;;;;;1.55;0.70;;;;;;;;;;5046817;28;20033;-77
2023/08/29 09:59:01;;;;;;;2.38;0.60;;;;;;;;;;5020520;28;20059;-77
2023/08/29 10:01:26;;;;;;;1.52;0.63;;;;;;;;;;5045655;28;20045;-77
2023/08/29 10:03:52;;;;;;;1.75;0.90;;;;;;;;;;5015544;28;20033;-77
2023/08/29 10:06:18;;;;;;;1.45;0.82;;;;;;;;;;5035658;28;20047;-77
2023/08/29 10:08:55;;;;;;;2.28;0.88;;;;;;;;;;5048404;28;20443;-78
2023/08/29 10:11:21;;;;;;;1.60;0.88;;;;;;;;;;5045729;28;20032;-77
2023/08/29 10:13:48;;;;;;;1.23;0.85;;;;;;;;;;5027522;28;20883;-77
2023/08/29 10:16:14;;;;;;;4.85;1.10;;;;;;;;;;5053070;28;20025;-77
2023/08/29 10:18:39;;;;;;;1.38;0.80;;;;;;;;;;5042175;28;20037;-77
2023/08/29 10:21:05;;;;;;;2.25;0.93;;;;;;;;;;5026424;28;20032;-77
2023/08/29 10:23:30;;;;;;;1.48;0.80;;;;;;;;;;5045323;28;20064;-77
2023/08/29 10:25:58;;;;;;;2.30;0.88;;;;;;;;;;5043957;28;20482;-77
2023/08/29 10:28:23;;;;;;;1.60;0.98;;;;;;;;;;5061798;28;20040;-78
2023/08/29 10:30:54;;;;;;;2.92;1.15;;;;;;;;;;5038157;28;20025;-76
2023/08/29 10:33:19;;;;;;;1.92;1.02;;;;;;;;;;5043420;28;20142;-76
2023/08/29 10:36:01;;;;;;;1.63;0.80;;;;;;;;;;5035056;28;20496;-76
2023/08/29 10:38:47;;;;;;;1.90;0.98;;;;;;;;;;5035989;28;20461;-76
2023/08/29 10:41:56;;;;;;;1.88;0.93;;;;;;;;;;5035501;28;20050;-76
2023/08/29 10:44:28;;;;;;;2.33;0.90;;;;;;;;;;4957133;28;20035;-76
2023/08/29 10:46:54;;;;;;;2.38;1.13;;;;;;;;;;4985312;28;20029;-76
2023/08/29 10:49:22;;;;;;;1.90;1.00;;;;;;;;;;5050865;28;20466;-77
2023/08/29 10:52:06;;;;;;;2.17;1.08;;;;;;;;;;5047204;28;20082;-77
2023/08/29 10:54:31;;;;;;;1.35;0.88;;;;;;;;;;5044545;28;20088;-78
2023/08/29 10:56:56;;;;;;;1.88;1.00;;;;;;;;;;5033270;28;20547;-77
2023/08/29 10:59:29;;;;;;;1.98;1.05;;;;;;;;;;5043616;28;20032;-79
2023/08/29 11:02:14;;;;;;;2.05;0.90;;;;;;;;;;5048886;28;20033;-78
2023/08/29 11:04:39;;;;;;;1.63;0.82;;;;;;;;;;5046719;28;20037;-78
2023/08/29 11:07:04;;;;;;;1.77;1.00;;;;;;;;;;5044773;28;20036;-78
2023/08/29 11:09:30;;;;;;;1.63;0.80;;;;;;;;;;5045980;28;20032;-78
2023/08/29 11:12:05;;;;;;;2.42;0.85;;;;;;;;;;5033846;28;20035;-77
2023/08/29 11:14:51;;;;;;;3.15;1.30;;;;;;;;;;5051934;28;20033;-78
2023/08/29 11:17:22;;;;;;;2.33;0.95;;;;;;;;;;5031433;28;20065;-78
2023/08/29 11:19:48;;;;;;;1.55;0.70;;;;;;;;;;5048533;28;20094;-78
2023/08/29 11:22:25;;;;;;;2.13;1.20;;;;;;;;;;5063564;28;20438;-77
2023/08/29 11:24:55;;;;;;;1.48;0.70;;;;;;;;;;5058932;28;20027;-77
2023/08/29 11:27:21;;;;;;;1.20;0.80;;;;;;;;;;5056993;28;20120;-77
2023/08/29 11:29:47;;;;;;;1.38;0.90;;;;;;;;;;5063001;28;20052;-77
2023/08/29 11:32:12;;;;;;;2.13;0.90;;;;;;;;;;5054351;28;20402;-77
2023/08/29 11:34:37;;;;;;;2.00;1.17;;;;;;;;;;5057713;28;20045;-77
2023/08/29 11:37:04;;;;;;;1.83;1.08;;;;;;;;;;5054537;28;20021;-77
2023/08/29 11:39:29;;;;;;;1.95;0.95;;;;;;;;;;5056710;28;20038;-77
2023/08/29 11:41:54;;;;;;;1.73;0.77;;;;;;;;;;5059994;28;20032;-77
2023/08/29 11:44:19;;;;;;;1.67;0.60;;;;;;;;;;5061201;28;20028;-77
2023/08/29 11:46:45;;;;;;;1.10;0.68;;;;;;;;;;5062215;28;20411;-77
2023/08/29 11:49:12;;;;;;;1.27;0.60;;;;;;;;;;5058741;28;20021;-77
2023/08/29 11:51:38;;;;;;;1.30;0.80;;;;;;;;;;5061113;28;20029;-77
2023/08/29 11:54:04;;;;;;;1.58;0.80;;;;;;;;;;5059403;28;20029;-77
2023/08/29 11:56:29;;;;;;;1.88;0.80;;;;;;;;;;5059960;28;20561;-77
2023/08/29 11:58:56;;;;;;;1.30;0.80;;;;;;;;;;5059923;28;20090;-77
2023/08/29 12:01:21;;;;;;;4.18;1.30;;;;;;;;;;5057101;28;20403;-77
2023/08/29 12:03:49;;;;;;;1.95;1.10;;;;;;;;;;5043073;28;20029;-77
2023/08/29 12:06:14;;;;;;;2.15;0.80;;;;;;;;;;5061188;28;20017;-77
2023/08/29 12:08:40;;;;;;;1.95;1.02;;;;;;;;;;5055225;28;20483;-77
2023/08/29 12:11:06;;;;;;;1.67;0.90;;;;;;;;;;5057335;28;20036;-77
2023/08/29 12:13:32;;;;;;;2.00;0.80;;;;;;;;;;5059989;28;20037;-77
2023/08/29 12:15:57;;;;;;;2.05;1.08;;;;;;;;;;5061132;28;20028;-77
2023/08/29 12:18:23;;;;;;;1.70;0.88;;;;;;;;;;5060208;28;20037;-76
2023/08/29 12:20:51;;;;;;;2.45;0.95;;;;;;;;;;5051212;28;20129;-78
2023/08/29 12:23:33;;;;;;;1.75;0.95;;;;;;;;;;5053152;28;20029;-77
2023/08/29 12:25:59;;;;;;;1.98;1.08;;;;;;;;;;5073838;28;20487;-77
2023/08/29 12:28:25;;;;;;;1.60;0.73;;;;;;;;;;5060268;28;20093;-77
2023/08/29 12:30:51;;;;;;;1.50;0.93;;;;;;;;;;5040342;28;20073;-77
2023/08/29 12:33:21;;;;;;;1.20;0.80;;;;;;;;;;5049832;28;20033;-77
2023/08/29 12:35:48;;;;;;;1.30;0.80;;;;;;;;;;5032519;28;20392;-77
2023/08/29 12:38:13;;;;;;;2.20;0.93;;;;;;;;;;5044700;28;20156;-77
2023/08/29 12:40:39;;;;;;;2.22;0.70;;;;;;;;;;5047349;28;20040;-77
2023/08/29 12:43:05;;;;;;;1.65;1.00;;;;;;;;;;5044819;28;20056;-77
2023/08/29 12:45:31;;;;;;;1.48;0.85;;;;;;;;;;5047758;28;20087;-77
2023/08/29 12:47:56;;;;;;;2.33;0.73;;;;;;;;;;5046975;28;20459;-77
2023/08/29 12:50:21;;;;;;;1.83;0.90;;;;;;;;;;5040060;28;20033;-78
2023/08/29 12:52:46;;;;;;;1.75;0.90;;;;;;;;;;5042769;28;20438;-77
2023/08/29 12:55:12;;;;;;;4.10;0.90;;;;;;;;;;5046396;28;20045;-77
2023/08/29 12:57:37;;;;;;;1.83;0.90;;;;;;;;;;5042447;28;20032;-77
2023/08/29 13:00:06;;;;;;;1.77;1.00;;;;;;;;;;5040169;28;20043;-77
2023/08/29 13:02:32;;;;;;;1.58;0.80;;;;;;;;;;5043081;28;20112;-77
2023/08/29 13:04:57;;;;;;;1.50;1.00;;;;;;;;;;5046516;28;20064;-77
2023/08/29 13:07:22;;;;;;;2.15;1.00;;;;;;;;;;5044310;28;20499;-77
2023/08/29 13:09:48;;;;;;;2.67;1.17;;;;;;;;;;5045656;28;20021;-77
2023/08/29 13:12:13;;;;;;;2.35;1.10;;;;;;;;;;5045065;28;20615;-77
2023/08/29 13:14:39;;;;;;;1.52;0.93;;;;;;;;;;5043144;28;20033;-77
2023/08/29 13:17:04;;;;;;;2.30;1.08;;;;;;;;;;5046040;28;20029;-77
2023/08/29 13:19:32;;;;;;;2.92;1.13;;;;;;;;;;5039209;28;20039;-77
2023/08/29 13:21:57;;;;;;;2.63;1.25;;;;;;;;;;5042483;28;20511;-77
2023/08/29 13:24:22;;;;;;;3.22;1.35;;;;;;;;;;5043228;28;20036;-78
2023/08/29 13:26:47;;;;;;;2.17;1.00;;;;;;;;;;5042246;28;20032;-77
2023/08/29 13:29:13;;;;;;;2.05;1.30;;;;;;;;;;5044721;28;20102;-77
2023/08/29 13:31:38;;;;;;;3.28;1.10;;;;;;;;;;5040355;28;20063;-77
2023/08/29 13:34:03;;;;;;;2.90;1.08;;;;;;;;;;5040923;28;20025;-77
2023/08/29 13:36:31;;;;;;;1.55;0.88;;;;;;;;;;5045241;28;20426;-77
2023/08/29 13:38:56;;;;;;;1.50;1.00;;;;;;;;;;5043566;28;20043;-77
2023/08/29 13:41:22;;;;;;;3.38;1.15;;;;;;;;;;5043425;28;20120;-77
2023/08/29 13:43:49;;;;;;;2.60;0.90;;;;;;;;;;5043537;28;20063;-77
2023/08/29 13:46:15;;;;;;;2.03;0.93;;;;;;;;;;5043661;28;20103;-77
2023/08/29 13:48:40;;;;;;;2.50;1.00;;;;;;;;;;5045833;28;20037;-77
2023/08/29 13:51:05;;;;;;;2.30;1.00;;;;;;;;;;5041627;28;20561;-77
2023/08/29 13:53:30;;;;;;;1.98;1.08;;;;;;;;;;5043328;28;20037;-77
2023/08/29 13:55:55;;;;;;;1.90;1.10;;;;;;;;;;5044111;28;20068;-77
2023/08/29 13:58:21;;;;;;;1.73;0.90;;;;;;;;;;5041527;28;20140;-77
2023/08/29 14:00:47;;;;;;;1.48;0.77;;;;;;;;;;5044380;28;20489;-77
2023/08/29 14:03:12;;;;;;;2.38;0.77;;;;;;;;;;5037907;28;20040;-77
2023/08/29 14:05:37;;;;;;;3.20;1.30;;;;;;;;;;5041463;28;20030;-77
2023/08/29 14:08:03;;;;;;;1.98;0.93;;;;;;;;;;5042541;28;20056;-77
2023/08/29 14:10:28;;;;;;;2.10;1.02;;;;;;;;;;5038389;28;20037;-77
2023/08/29 14:12:53;;;;;;;3.05;1.95;;;;;;;;;;5039039;28;20071;-77
2023/08/29 14:15:19;;;;;;;3.40;1.00;;;;;;;;;;5040586;28;20033;-77
2023/08/29 14:17:44;;;;;;;2.05;1.20;;;;;;;;;;5038821;28;20282;-77
2023/08/29 14:20:09;;;;;;;1.73;0.90;;;;;;;;;;5039493;28;20070;-77
2023/08/29 14:22:34;;;;;;;2.80;1.23;;;;;;;;;;5037905;28;20120;-77
2023/08/29 14:25:00;;;;;;;2.42;1.20;;;;;;;;;;5045969;28;20100;-77
2023/08/29 14:27:25;;;;;;;3.05;1.08;;;;;;;;;;5044058;28;20037;-77
2023/08/29 14:29:50;;;;;;;1.90;0.98;;;;;;;;;;5043572;28;20025;-77
2023/08/29 14:32:16;;;;;;;2.35;1.20;;;;;;;;;;5041182;28;20037;-77
2023/08/29 14:34:41;;;;;;;3.72;1.38;;;;;;;;;;5043089;28;20032;-77